Hlavní strana
METAR-TAF:

METAR-TAF

Letiště :

Richmond, Austrálie

zeměpisná šířka: 33-36S, zeměpisná délka: 150-47E, výška: 21 m

Aktuální stav počasí

Zpráva byla vytvořena před 32 minutami, v 04:00 UTC
Jihovýchodní vítr 6 kt
Teplota 20°C
Vlhkost vzduchu 60%
Tlak 1020 hPa
Viditelnost 10 km a více
Polojasno ve výšce 3900 ft
Zataženo ve výšce 4800 ft
Zataženo ve výšce 6100 ft

METAR: YSRI 070400Z AUTO 13006KT 9999 // SCT039 OVC048 OVC061 20/12 Q1020

Čas: 14:32 (04:32 UTC)

Předpověď počasí

Zpráva byla vytvořena před 5 hodinami a 21 minutami, v 23:11 UTC
Předpověď platná od 07 v 00 UTC do 08 v 00 UTC
Jihovýchodní vítr 7 kt
Viditelnost 10 km a více
Polojasno ve výšce 3500 ft
Od 07 v 0900 UTC
vítr z různých směrů 3 kt
Viditelnost 10 km a více
Polojasno ve výšce 2500 ft
Od 07 v 1800 UTC
Jihozápadní vítr 5 kt
Viditelnost 10 km a více
Polojasno ve výšce 1500 ft
Oblačno až skoro zataženo ve výšce 2500 ft

TAF: YSRI 062311Z 0700/0800 14007KT 9999 NSW SCT035 FM070900 VRB03KT 9999 SCT025 FM071800 22005KT 9999 SCT015 BKN025

Stav a předpovědi počasí z více než 4 000 letišť (zprávy METAR a TAF).

Červené a žluté tečky na mapě představují dostupné meteorologické stanice.

Když kurzor umístíte na tečku, zobrazí se název stanice.

Pak kliknutím zobrazíte stav a předpověď počasí.

Chcete-li změnit mapu, kliknutím na zelené tlačítko se znaménkem +mapu přiblížíte, kliknutím na zelené tlačítko se znaménkem – mapu oddálíte a kliknutím na zelené šipky přejdete na sousední mapy.


METAR-TAF: